Time;durP1;ratioP1;P1;durP2;ratioP2;P2;SDS_P1;SDS_P2;PMS_P1;PMS_P2;Temp;Humidity;BMP_temperature;BMP_pressure;BME280_temperature;BME280_humidity;BME280_pressure;Samples;Min_cycle;Max_cycle;Signal;HPM_P1;HPM_P2
2023/08/26 00:01:15;;;;;;;;;;;21.80;76.90;;;;;;5077165;28;20397;-65
2023/08/26 00:03:41;;;;;;;;;;;21.80;77.60;;;;;;5095304;28;19963;-65
2023/08/26 00:06:06;;;;;;;;;;;21.80;76.80;;;;;;5077099;28;19916;-65
2023/08/26 00:08:32;;;;;;;;;;;21.80;76.80;;;;;;5095094;28;19923;-65
2023/08/26 00:10:58;;;;;;;;;;;21.80;76.80;;;;;;5095110;28;19916;-65
2023/08/26 00:13:23;;;;;;;;;;;21.80;76.80;;;;;;5095021;28;19916;-65
2023/08/26 00:15:49;;;;;;;;;;;21.80;76.80;;;;;;5076897;28;19920;-65
2023/08/26 00:18:14;;;;;;;;;;;21.80;76.80;;;;;;5094949;28;19916;-65
2023/08/26 00:20:40;;;;;;;;;;;21.80;76.80;;;;;;5095106;28;20347;-65
2023/08/26 00:23:06;;;;;;;;;;;21.80;76.80;;;;;;5076670;28;20378;-65
2023/08/26 00:25:31;;;;;;;;;;;21.80;76.70;;;;;;5077011;28;19916;-65
2023/08/26 00:27:57;;;;;;;;;;;21.80;76.70;;;;;;5076606;28;19916;-65
2023/08/26 00:30:22;;;;;;;;;;;21.80;76.70;;;;;;5076568;28;19923;-65
2023/08/26 00:32:48;;;;;;;;;;;21.70;76.70;;;;;;5094919;28;20354;-65
2023/08/26 00:35:14;;;;;;;;;;;21.70;76.60;;;;;;5076026;28;19926;-65
2023/08/26 00:37:39;;;;;;;;;;;21.70;76.60;;;;;;5094717;28;20018;-65
2023/08/26 00:40:05;;;;;;;;;;;21.70;76.60;;;;;;5094544;28;20571;-65
2023/08/26 00:42:38;;;;;;;;;;;21.80;76.60;;;;;;5094559;28;20412;-65
2023/08/26 00:45:04;;;;;;;;;;;21.70;76.60;;;;;;5076547;28;19985;-65
2023/08/26 00:47:30;;;;;;;;;;;21.70;76.50;;;;;;5076236;28;19916;-65
2023/08/26 00:49:55;;;;;;;;;;;21.70;76.50;;;;;;5076197;28;20287;-65
2023/08/26 00:52:21;;;;;;;;;;;21.70;76.50;;;;;;5076133;28;19920;-65
2023/08/26 00:54:46;;;;;;;;;;;21.70;76.50;;;;;;5094235;28;19916;-65
2023/08/26 00:57:12;;;;;;;;;;;21.70;76.40;;;;;;5076066;28;19923;-65
2023/08/26 00:59:37;;;;;;;;;;;21.70;76.50;;;;;;5075795;28;19943;-65
2023/08/26 01:02:03;;;;;;;;;;;21.70;76.40;;;;;;5094287;28;20023;-65
2023/08/26 01:04:29;;;;;;;;;;;21.70;76.40;;;;;;5093986;28;19916;-65
2023/08/26 01:06:55;;;;;;;;;;;21.70;76.40;;;;;;5094051;28;20033;-65
2023/08/26 01:09:20;;;;;;;;;;;21.70;76.40;;;;;;5093923;28;19927;-65
2023/08/26 01:12:05;;;;;;;;;;;21.70;76.40;;;;;;5076003;28;19923;-64
2023/08/26 01:14:34;;;;;;;;;;;21.70;76.40;;;;;;5075697;28;19920;-65
2023/08/26 01:16:59;;;;;;;;;;;21.70;76.40;;;;;;5075713;28;20275;-65
2023/08/26 01:22:07;;;;;;;;;;;21.60;76.30;;;;;;5110375;27;19908;-65
2023/08/26 01:24:33;;;;;;;;;;;21.70;76.30;;;;;;5109033;28;19969;-65
2023/08/26 01:26:59;;;;;;;;;;;21.70;76.30;;;;;;5108957;28;19920;-65
2023/08/26 01:29:25;;;;;;;;;;;21.60;76.30;;;;;;5108959;28;20337;-65
2023/08/26 01:32:10;;;;;;;;;;;21.60;76.30;;;;;;5110115;28;19916;-64
2023/08/26 01:34:37;;;;;;;;;;;21.60;76.30;;;;;;5107965;28;19916;-65
2023/08/26 01:37:03;;;;;;;;;;;21.60;76.30;;;;;;5109101;28;19923;-65
2023/08/26 01:39:29;;;;;;;;;;;21.60;76.20;;;;;;5108763;28;19919;-65
2023/08/26 01:41:56;;;;;;;;;;;21.60;76.20;;;;;;5108589;28;19920;-65
2023/08/26 01:44:22;;;;;;;;;;;21.60;76.20;;;;;;5109023;28;19986;-65
2023/08/26 01:46:47;;;;;;;;;;;21.60;76.20;;;;;;5110200;28;20359;-65
2023/08/26 01:49:13;;;;;;;;;;;21.60;76.20;;;;;;5108933;28;19916;-65
2023/08/26 01:51:39;;;;;;;;;;;21.60;76.10;;;;;;5108803;28;19916;-65
2023/08/26 01:54:06;;;;;;;;;;;21.60;76.10;;;;;;5109737;28;19916;-65
2023/08/26 01:56:32;;;;;;;;;;;21.60;76.10;;;;;;5108692;28;19968;-65
2023/08/26 01:59:00;;;;;;;;;;;21.60;76.10;;;;;;5109899;28;19916;-65
2023/08/26 02:01:26;;;;;;;;;;;21.60;76.10;;;;;;5108275;28;19927;-65
2023/08/26 02:03:51;;;;;;;;;;;21.60;76.10;;;;;;5108592;28;19920;-65
2023/08/26 02:06:17;;;;;;;;;;;21.60;76.10;;;;;;5109558;28;19973;-65
2023/08/26 02:08:42;;;;;;;;;;;21.60;76.10;;;;;;5108539;28;19916;-65
2023/08/26 02:11:09;;;;;;;;;;;21.60;76.10;;;;;;5109418;28;19959;-65
2023/08/26 02:13:35;;;;;;;;;;;21.60;76.10;;;;;;5108426;28;19916;-65
2023/08/26 02:16:00;;;;;;;;;;;21.60;76.10;;;;;;5108445;28;19915;-65
2023/08/26 02:18:26;;;;;;;;;;;21.50;76.00;;;;;;5108353;28;19998;-65
2023/08/26 02:20:51;;;;;;;;;;;21.50;76.00;;;;;;5107855;28;19931;-65
2023/08/26 02:23:17;;;;;;;;;;;21.60;76.00;;;;;;5109182;28;20105;-65
2023/08/26 02:25:43;;;;;;;;;;;21.50;75.90;;;;;;5107812;28;20010;-65
2023/08/26 02:28:09;;;;;;;;;;;21.50;75.90;;;;;;5108073;28;19969;-65
2023/08/26 02:30:34;;;;;;;;;;;21.50;75.90;;;;;;5109263;28;19916;-65
2023/08/26 02:33:00;;;;;;;;;;;21.50;75.90;;;;;;5096801;28;20321;-65
2023/08/26 02:35:25;;;;;;;;;;;21.50;75.90;;;;;;5094151;28;19952;-65
2023/08/26 02:37:51;;;;;;;;;;;21.50;75.90;;;;;;5094360;28;20006;-65
2023/08/26 02:40:17;;;;;;;;;;;21.50;75.90;;;;;;5093903;28;20343;-65
2023/08/26 02:42:43;;;;;;;;;;;21.50;75.90;;;;;;5095305;28;19916;-65
2023/08/26 02:45:08;;;;;;;;;;;21.50;75.90;;;;;;5094257;28;20317;-65
2023/08/26 02:47:34;;;;;;;;;;;21.50;75.90;;;;;;5095115;28;19923;-65
2023/08/26 02:50:03;;;;;;;;;;;21.50;75.80;;;;;;5094213;28;19927;-65
2023/08/26 02:52:29;;;;;;;;;;;21.50;75.80;;;;;;5095165;28;19927;-65
2023/08/26 02:54:54;;;;;;;;;;;21.50;75.80;;;;;;5094994;28;19916;-65
2023/08/26 02:57:20;;;;;;;;;;;21.50;75.80;;;;;;5095188;28;19923;-65
2023/08/26 02:59:46;;;;;;;;;;;21.50;75.80;;;;;;5095029;28;19916;-65
2023/08/26 03:02:12;;;;;;;;;;;21.50;75.80;;;;;;5095067;28;19923;-65
2023/08/26 03:04:37;;;;;;;;;;;21.50;75.80;;;;;;5095086;28;19916;-65
2023/08/26 03:07:03;;;;;;;;;;;21.50;75.80;;;;;;5093973;28;20298;-65
2023/08/26 03:09:29;;;;;;;;;;;21.50;75.80;;;;;;5093690;28;19927;-65
2023/08/26 03:11:55;;;;;;;;;;;21.50;75.80;;;;;;5094599;28;20410;-65
2023/08/26 03:14:20;;;;;;;;;;;21.50;75.70;;;;;;5093711;28;19970;-65
2023/08/26 03:16:46;;;;;;;;;;;21.50;75.70;;;;;;5093801;28;19919;-65
2023/08/26 03:19:11;;;;;;;;;;;21.50;75.70;;;;;;5093772;28;19945;-65
2023/08/26 03:21:37;;;;;;;;;;;21.40;75.70;;;;;;5092838;28;20037;-65
2023/08/26 03:24:02;;;;;;;;;;;21.40;75.60;;;;;;5093328;28;19962;-65
2023/08/26 03:26:28;;;;;;;;;;;21.40;75.60;;;;;;5093146;28;19920;-65
2023/08/26 03:28:53;;;;;;;;;;;21.40;75.60;;;;;;5093415;28;20241;-65
2023/08/26 03:31:19;;;;;;;;;;;21.50;75.60;;;;;;5093304;28;19959;-65
2023/08/26 03:33:44;;;;;;;;;;;21.40;75.60;;;;;;5093180;28;20313;-65
2023/08/26 03:36:10;;;;;;;;;;;21.40;75.50;;;;;;5094165;28;19931;-65
2023/08/26 03:38:35;;;;;;;;;;;21.40;75.50;;;;;;5094341;28;19945;-65
2023/08/26 03:41:01;;;;;;;;;;;21.40;75.50;;;;;;5094018;28;19927;-65
2023/08/26 03:43:27;;;;;;;;;;;21.40;75.50;;;;;;5093210;28;20033;-65
2023/08/26 03:45:52;;;;;;;;;;;21.40;75.50;;;;;;5094074;28;20015;-65
2023/08/26 03:48:18;;;;;;;;;;;21.40;75.50;;;;;;5094161;28;19920;-65
2023/08/26 03:50:58;;;;;;;;;;;21.40;75.40;;;;;;5093107;28;19916;-65
2023/08/26 03:53:24;;;;;;;;;;;21.40;75.40;;;;;;5093902;28;19916;-65
2023/08/26 03:55:49;;;;;;;;;;;21.40;75.50;;;;;;5092755;28;20359;-65
2023/08/26 03:58:15;;;;;;;;;;;21.40;75.40;;;;;;5093139;28;19916;-65
2023/08/26 04:00:41;;;;;;;;;;;21.30;75.40;;;;;;5092374;28;20312;-65
2023/08/26 04:03:06;;;;;;;;;;;21.40;75.40;;;;;;5093763;28;19915;-65
2023/08/26 04:05:32;;;;;;;;;;;21.40;75.30;;;;;;5092689;28;19916;-65
2023/08/26 04:07:59;;;;;;;;;;;21.30;75.30;;;;;;5093759;28;19916;-65
2023/08/26 04:10:24;;;;;;;;;;;21.30;75.30;;;;;;5092819;28;20399;-68
2023/08/26 04:12:50;;;;;;;;;;;21.40;76.10;;;;;;5093499;28;19916;-67
2023/08/26 04:15:15;;;;;;;;;;;21.40;75.30;;;;;;5093777;28;20385;-67
2023/08/26 04:17:41;;;;;;;;;;;21.40;75.30;;;;;;5092182;28;19961;-67
2023/08/26 04:20:07;;;;;;;;;;;21.30;75.20;;;;;;5092075;28;19920;-67
2023/08/26 04:22:33;;;;;;;;;;;21.30;75.20;;;;;;5091987;28;20003;-67
2023/08/26 04:24:59;;;;;;;;;;;21.30;75.20;;;;;;5092065;28;20011;-67
2023/08/26 04:27:24;;;;;;;;;;;21.30;75.30;;;;;;5093144;28;20362;-68
2023/08/26 04:29:50;;;;;;;;;;;21.30;75.20;;;;;;5093421;28;19916;-67
2023/08/26 04:32:17;;;;;;;;;;;21.30;75.20;;;;;;5092223;28;20363;-67
2023/08/26 04:34:46;;;;;;;;;;;21.30;75.10;;;;;;5091909;28;19923;-66
2023/08/26 04:37:12;;;;;;;;;;;21.30;75.20;;;;;;5091805;28;20371;-67
2023/08/26 04:39:37;;;;;;;;;;;21.30;75.20;;;;;;5092144;28;19952;-67
2023/08/26 04:42:03;;;;;;;;;;;21.30;75.10;;;;;;5092924;28;19927;-67
2023/08/26 04:44:29;;;;;;;;;;;21.30;75.10;;;;;;5093246;28;19923;-67
2023/08/26 04:46:54;;;;;;;;;;;21.30;75.10;;;;;;5091628;28;19916;-68
2023/08/26 04:49:20;;;;;;;;;;;21.30;75.10;;;;;;5091974;28;19923;-68
2023/08/26 04:51:49;;;;;;;;;;;21.30;75.10;;;;;;5091920;28;20014;-67
2023/08/26 04:54:15;;;;;;;;;;;21.30;75.10;;;;;;5091585;28;19930;-67
2023/08/26 04:56:40;;;;;;;;;;;21.30;75.10;;;;;;5091558;28;19920;-67
2023/08/26 04:59:06;;;;;;;;;;;21.30;75.00;;;;;;5091781;28;19916;-67
2023/08/26 05:01:31;;;;;;;;;;;21.30;75.10;;;;;;5091414;28;20388;-67
2023/08/26 05:03:57;;;;;;;;;;;21.30;75.00;;;;;;5092715;28;20037;-67
2023/08/26 05:06:23;;;;;;;;;;;21.30;75.00;;;;;;5091797;28;19937;-67
2023/08/26 05:08:48;;;;;;;;;;;21.30;75.00;;;;;;5091292;28;19923;-67
2023/08/26 05:11:14;;;;;;;;;;;21.30;75.00;;;;;;5092731;28;19938;-67
2023/08/26 05:13:39;;;;;;;;;;;21.20;75.00;;;;;;5091562;28;20473;-67
2023/08/26 05:16:05;;;;;;;;;;;21.20;74.90;;;;;;5091692;28;19919;-67
2023/08/26 05:18:30;;;;;;;;;;;21.20;74.90;;;;;;5092634;28;19916;-67
2023/08/26 05:20:56;;;;;;;;;;;21.20;74.90;;;;;;5091121;28;20298;-65
2023/08/26 05:23:22;;;;;;;;;;;21.30;74.90;;;;;;5092541;28;20416;-65
2023/08/26 05:25:47;;;;;;;;;;;21.20;74.80;;;;;;5092514;28;19916;-65
2023/08/26 05:28:13;;;;;;;;;;;21.20;74.80;;;;;;5091070;28;19916;-72
2023/08/26 05:30:38;;;;;;;;;;;21.20;74.80;;;;;;5092470;28;19954;-65
2023/08/26 05:33:04;;;;;;;;;;;21.20;74.80;;;;;;5092382;28;19916;-65
2023/08/26 05:35:30;;;;;;;;;;;21.20;74.70;;;;;;5091433;28;20062;-65
2023/08/26 05:37:55;;;;;;;;;;;21.20;74.70;;;;;;5092645;28;19916;-65
2023/08/26 05:40:26;;;;;;;;;;;21.20;74.70;;;;;;5091254;28;20444;-65
2023/08/26 05:42:54;;;;;;;;;;;21.20;74.70;;;;;;5092412;28;20006;-65
2023/08/26 05:45:20;;;;;;;;;;;21.20;74.70;;;;;;5091441;28;20006;-65
2023/08/26 05:47:45;;;;;;;;;;;21.20;74.60;;;;;;5091335;28;20011;-65
2023/08/26 05:50:10;;;;;;;;;;;21.20;74.60;;;;;;5090972;28;20317;-66
2023/08/26 05:52:36;;;;;;;;;;;21.20;74.60;;;;;;5091489;28;19967;-65
2023/08/26 05:55:02;;;;;;;;;;;21.20;74.60;;;;;;5090973;28;20277;-65
2023/08/26 05:57:27;;;;;;;;;;;21.20;74.60;;;;;;5092247;28;19923;-65
2023/08/26 05:59:53;;;;;;;;;;;21.20;74.60;;;;;;5091041;28;20313;-72
2023/08/26 06:02:19;;;;;;;;;;;21.20;74.50;;;;;;5091103;28;19981;-65
2023/08/26 06:04:44;;;;;;;;;;;21.20;74.50;;;;;;5090809;28;19916;-65
2023/08/26 06:07:10;;;;;;;;;;;21.20;74.50;;;;;;5093324;28;19916;-65
2023/08/26 06:09:35;;;;;;;;;;;21.20;74.50;;;;;;5094724;28;19941;-65
2023/08/26 06:12:00;;;;;;;;;;;21.20;74.50;;;;;;5095971;28;19939;-65
2023/08/26 06:14:26;;;;;;;;;;;21.20;74.40;;;;;;5094795;28;19959;-65
2023/08/26 06:16:51;;;;;;;;;;;21.10;74.40;;;;;;5096103;28;19920;-65
2023/08/26 06:19:17;;;;;;;;;;;21.20;74.40;;;;;;5096275;28;19945;-65
2023/08/26 06:21:42;;;;;;;;;;;21.20;74.40;;;;;;5094108;28;19966;-65
2023/08/26 06:24:08;;;;;;;;;;;21.10;74.30;;;;;;5095602;28;19920;-65
2023/08/26 06:26:33;;;;;;;;;;;21.10;74.30;;;;;;5094327;28;19923;-72
2023/08/26 06:28:59;;;;;;;;;;;21.10;74.30;;;;;;5094608;28;20300;-65
2023/08/26 06:31:24;;;;;;;;;;;21.20;74.20;;;;;;5094422;28;19923;-65
2023/08/26 06:33:50;;;;;;;;;;;21.10;74.20;;;;;;5094553;28;20394;-65
2023/08/26 06:36:15;;;;;;;;;;;21.10;74.10;;;;;;5094172;28;19916;-65
2023/08/26 06:38:41;;;;;;;;;;;21.10;74.10;;;;;;5095482;28;19974;-65
2023/08/26 06:41:06;;;;;;;;;;;21.10;74.10;;;;;;5094059;28;19920;-65
2023/08/26 06:43:32;;;;;;;;;;;21.10;74.00;;;;;;5094284;28;19922;-65
2023/08/26 06:45:58;;;;;;;;;;;21.10;74.00;;;;;;5095164;28;19920;-65
2023/08/26 06:48:24;;;;;;;;;;;21.10;74.00;;;;;;5094258;28;20367;-65
2023/08/26 06:50:49;;;;;;;;;;;21.10;74.00;;;;;;5094187;28;19951;-65
2023/08/26 06:53:20;;;;;;;;;;;21.10;74.00;;;;;;5094158;28;20359;-65
2023/08/26 06:55:46;;;;;;;;;;;21.10;74.00;;;;;;5093779;28;19916;-65
2023/08/26 06:58:12;;;;;;;;;;;21.10;74.00;;;;;;5093962;28;19916;-65
2023/08/26 07:00:37;;;;;;;;;;;21.10;73.90;;;;;;5094774;28;19924;-65
2023/08/26 07:03:03;;;;;;;;;;;21.10;73.90;;;;;;5094786;28;19923;-65
2023/08/26 07:05:28;;;;;;;;;;;21.10;73.90;;;;;;5093531;28;19920;-72
2023/08/26 07:07:54;;;;;;;;;;;21.10;73.80;;;;;;5094699;28;19931;-65
2023/08/26 07:10:19;;;;;;;;;;;21.10;73.80;;;;;;5093496;28;19962;-65
2023/08/26 07:12:45;;;;;;;;;;;21.10;74.50;;;;;;5094647;28;19916;-65
2023/08/26 07:15:10;;;;;;;;;;;21.10;73.70;;;;;;5093682;28;20351;-65
2023/08/26 07:17:36;;;;;;;;;;;21.10;73.70;;;;;;5093352;28;20374;-65
2023/08/26 07:20:02;;;;;;;;;;;21.10;73.60;;;;;;5096520;28;19926;-65
2023/08/26 07:22:27;;;;;;;;;;;21.10;73.70;;;;;;5115118;28;20380;-66
2023/08/26 07:24:53;;;;;;;;;;;21.10;73.60;;;;;;5096534;28;20274;-65
2023/08/26 07:27:18;;;;;;;;;;;21.10;73.60;;;;;;5096764;28;19965;-65
2023/08/26 07:29:44;;;;;;;;;;;21.10;73.50;;;;;;5096836;28;19922;-65
2023/08/26 07:32:10;;;;;;;;;;;21.10;73.50;;;;;;5096614;28;20391;-65
2023/08/26 07:34:35;;;;;;;;;;;21.10;73.50;;;;;;5114831;28;19916;-73
2023/08/26 07:37:01;;;;;;;;;;;21.10;73.50;;;;;;5130455;27;20300;-65
2023/08/26 07:39:28;;;;;;;;;;;21.10;73.50;;;;;;5096643;28;19919;-65
2023/08/26 07:41:54;;;;;;;;;;;21.10;73.50;;;;;;5096249;28;19968;-71
2023/08/26 07:44:20;;;;;;;;;;;21.10;73.50;;;;;;5096621;28;20308;-65
2023/08/26 07:46:46;;;;;;;;;;;21.10;73.50;;;;;;5114451;28;19915;-65
2023/08/26 07:49:12;;;;;;;;;;;21.00;73.40;;;;;;5096592;28;19998;-65
2023/08/26 07:51:37;;;;;;;;;;;21.10;73.40;;;;;;5096105;28;19916;-65
2023/08/26 07:54:03;;;;;;;;;;;21.10;73.40;;;;;;5130143;27;19916;-65
2023/08/26 07:56:28;;;;;;;;;;;21.10;73.50;;;;;;5114356;28;20332;-66
2023/08/26 07:58:54;;;;;;;;;;;21.10;73.40;;;;;;5096136;28;19916;-65
2023/08/26 08:01:19;;;;;;;;;;;21.10;73.30;;;;;;5095835;28;19967;-65
2023/08/26 08:03:44;;;;;;;;;;;21.10;73.30;;;;;;5114487;28;19919;-65
2023/08/26 08:06:10;;;;;;;;;;;21.00;73.20;;;;;;5095835;28;20355;-66
2023/08/26 08:08:35;;;;;;;;;;;21.10;73.30;;;;;;5113974;28;19915;-65
2023/08/26 08:11:01;;;;;;;;;;;21.10;73.30;;;;;;5095215;28;19981;-65
2023/08/26 08:13:26;;;;;;;;;;;21.10;73.20;;;;;;5095892;28;19922;-65
2023/08/26 08:15:52;;;;;;;;;;;21.10;73.20;;;;;;5096119;28;19920;-65
2023/08/26 08:18:17;;;;;;;;;;;21.10;73.20;;;;;;5095524;28;19920;-66
2023/08/26 08:20:43;;;;;;;;;;;21.10;73.20;;;;;;5095276;28;19924;-72
2023/08/26 08:23:08;;;;;;;;;;;21.10;73.20;;;;;;5095426;28;19926;-65
2023/08/26 08:25:34;;;;;;;;;;;21.10;73.20;;;;;;5095326;28;19916;-65
2023/08/26 08:28:00;;;;;;;;;;;21.10;73.20;;;;;;5113715;28;19919;-65
2023/08/26 08:30:26;;;;;;;;;;;21.10;73.10;;;;;;5113455;28;19915;-65
2023/08/26 08:32:51;;;;;;;;;;;21.10;73.10;;;;;;5095636;28;19920;-65
2023/08/26 08:35:17;;;;;;;;;;;21.10;73.10;;;;;;5095205;28;20329;-66
2023/08/26 08:37:42;;;;;;;;;;;21.10;73.10;;;;;;5113693;28;19915;-66
2023/08/26 08:40:08;;;;;;;;;;;21.10;73.00;;;;;;5095450;28;20230;-65
2023/08/26 08:42:34;;;;;;;;;;;21.10;73.00;;;;;;5113558;28;19916;-65
2023/08/26 08:45:01;;;;;;;;;;;21.10;73.00;;;;;;5095085;28;19971;-65
2023/08/26 08:47:26;;;;;;;;;;;21.10;73.00;;;;;;5095476;28;19915;-65
2023/08/26 08:49:52;;;;;;;;;;;21.10;73.00;;;;;;5113197;28;19926;-65
2023/08/26 08:52:19;;;;;;;;;;;21.10;73.00;;;;;;5095358;28;19916;-65
2023/08/26 08:54:44;;;;;;;;;;;21.10;72.90;;;;;;5113092;28;19916;-66
2023/08/26 08:57:12;;;;;;;;;;;21.10;72.90;;;;;;5094909;28;19915;-65
2023/08/26 08:59:38;;;;;;;;;;;21.10;72.90;;;;;;5095156;28;19977;-65
2023/08/26 09:02:04;;;;;;;;;;;21.10;72.90;;;;;;5094634;28;20422;-65
2023/08/26 09:04:30;;;;;;;;;;;21.10;72.90;;;;;;5128821;27;20319;-65
2023/08/26 09:06:55;;;;;;;;;;;21.10;72.90;;;;;;5094708;28;19916;-65
2023/08/26 09:09:21;;;;;;;;;;;21.10;72.80;;;;;;5129182;27;19923;-65
2023/08/26 09:11:48;;;;;;;;;;;21.10;72.80;;;;;;5128752;27;19966;-65
2023/08/26 09:14:14;;;;;;;;;;;21.10;72.80;;;;;;5113137;28;20338;-72
2023/08/26 09:16:40;;;;;;;;;;;21.10;72.70;;;;;;5094726;28;20006;-65
2023/08/26 09:19:08;;;;;;;;;;;21.10;72.80;;;;;;5128805;27;19954;-65
2023/08/26 09:21:33;;;;;;;;;;;21.10;72.70;;;;;;5128423;28;20381;-65
2023/08/26 09:23:59;;;;;;;;;;;21.10;72.70;;;;;;5128695;28;20014;-65
2023/08/26 09:26:25;;;;;;;;;;;21.10;72.60;;;;;;5128946;28;19954;-65
2023/08/26 09:28:51;;;;;;;;;;;21.20;72.70;;;;;;5094547;28;19930;-65
2023/08/26 09:31:17;;;;;;;;;;;21.20;72.70;;;;;;5094577;28;19916;-65
2023/08/26 09:33:48;;;;;;;;;;;21.20;72.70;;;;;;5112764;28;19916;-65
2023/08/26 09:36:13;;;;;;;;;;;21.20;72.70;;;;;;5112640;28;19915;-65
2023/08/26 09:38:40;;;;;;;;;;;21.20;72.60;;;;;;5094563;28;19923;-65
2023/08/26 09:41:05;;;;;;;;;;;21.20;72.40;;;;;;5128664;27;19927;-65
2023/08/26 09:43:31;;;;;;;;;;;21.20;72.40;;;;;;5116146;28;20282;-65
2023/08/26 09:45:56;;;;;;;;;;;21.20;72.40;;;;;;5098949;28;19916;-65
2023/08/26 09:48:23;;;;;;;;;;;21.20;72.40;;;;;;5098412;28;19920;-65
2023/08/26 09:50:48;;;;;;;;;;;21.20;72.40;;;;;;5098638;28;20014;-71
2023/08/26 09:53:26;;;;;;;;;;;21.20;72.40;;;;;;5116834;28;20006;-72
2023/08/26 09:55:52;;;;;;;;;;;21.20;72.30;;;;;;5116569;28;19959;-65
2023/08/26 09:58:18;;;;;;;;;;;21.20;72.30;;;;;;5098495;28;19971;-65
2023/08/26 10:00:47;;;;;;;;;;;21.20;72.30;;;;;;5132414;27;19920;-65
2023/08/26 10:03:15;;;;;;;;;;;21.20;72.10;;;;;;5098374;28;19969;-65
2023/08/26 10:05:41;;;;;;;;;;;21.20;72.00;;;;;;5098117;28;19927;-65
2023/08/26 10:08:08;;;;;;;;;;;21.20;71.90;;;;;;5116392;28;19916;-65
2023/08/26 10:10:35;;;;;;;;;;;21.20;71.90;;;;;;5098059;28;19922;-65
2023/08/26 10:13:04;;;;;;;;;;;21.20;71.80;;;;;;5098288;28;19959;-65
2023/08/26 10:15:32;;;;;;;;;;;21.20;71.70;;;;;;5098301;28;19923;-65
2023/08/26 10:17:59;;;;;;;;;;;21.20;72.10;;;;;;5097840;28;19916;-65
2023/08/26 10:20:25;;;;;;;;;;;21.20;71.60;;;;;;5094339;28;19920;-65
2023/08/26 10:22:51;;;;;;;;;;;21.30;71.60;;;;;;5094662;28;19920;-65
2023/08/26 10:25:17;;;;;;;;;;;21.20;71.50;;;;;;5095872;28;20407;-65
2023/08/26 10:27:43;;;;;;;;;;;21.20;71.40;;;;;;5094321;28;19916;-65
2023/08/26 10:30:09;;;;;;;;;;;21.30;71.40;;;;;;5094584;28;19920;-65
2023/08/26 10:32:44;;;;;;;;;;;21.30;71.40;;;;;;5094254;28;19924;-65
2023/08/26 10:35:12;;;;;;;;;;;21.30;71.40;;;;;;5094396;28;20362;-65
2023/08/26 10:37:37;;;;;;;;;;;21.30;71.30;;;;;;5095449;28;19923;-73
2023/08/26 10:40:04;;;;;;;;;;;21.20;71.20;;;;;;5094176;28;19916;-65
2023/08/26 10:42:30;;;;;;;;;;;21.30;71.10;;;;;;5094376;28;19920;-66
2023/08/26 10:44:56;;;;;;;;;;;21.20;71.10;;;;;;5095326;28;19916;-65
2023/08/26 10:50:19;;;;;;;;;;;21.30;71.20;;;;;;5110350;27;19930;-65
2023/08/26 10:52:45;;;;;;;;;;;21.30;71.10;;;;;;5109041;28;19916;-65
2023/08/26 10:55:19;;;;;;;;;;;21.30;71.10;;;;;;5110218;28;19922;-73
2023/08/26 10:58:05;;;;;;;;;;;21.30;71.00;;;;;;5110656;28;19969;-65
2023/08/26 11:00:30;;;;;;;;;;;21.30;71.30;;;;;;5109012;28;19922;-65
2023/08/26 11:02:56;;;;;;;;;;;21.30;71.30;;;;;;5108826;28;20014;-65
2023/08/26 11:05:21;;;;;;;;;;;21.30;71.20;;;;;;5109202;28;19916;-65
2023/08/26 11:07:47;;;;;;;;;;;21.30;71.10;;;;;;5109970;28;20030;-65
2023/08/26 11:10:33;;;;;;;;;;;21.30;71.30;;;;;;5108974;28;20381;-65
2023/08/26 11:12:59;;;;;;;;;;;21.30;71.10;;;;;;5109892;28;20262;-65
2023/08/26 11:15:25;;;;;;;;;;;21.30;71.10;;;;;;5108882;28;19916;-65
2023/08/26 11:17:54;;;;;;;;;;;21.30;71.20;;;;;;5108867;28;20003;-65
2023/08/26 11:20:20;;;;;;;;;;;21.30;71.20;;;;;;5109884;28;19924;-65
2023/08/26 11:22:45;;;;;;;;;;;21.30;71.10;;;;;;5108822;28;19923;-66
2023/08/26 11:25:12;;;;;;;;;;;21.30;71.10;;;;;;5108369;28;19939;-66
2023/08/26 11:27:37;;;;;;;;;;;21.20;71.00;;;;;;5109899;28;19923;-72
2023/08/26 11:30:05;;;;;;;;;;;21.20;71.10;;;;;;5125442;28;20286;-65
2023/08/26 11:32:31;;;;;;;;;;;21.30;71.10;;;;;;5108589;28;20381;-65
2023/08/26 11:34:56;;;;;;;;;;;21.30;71.00;;;;;;5108273;28;19916;-71
2023/08/26 11:37:22;;;;;;;;;;;21.20;71.00;;;;;;5109570;28;19916;-66
2023/08/26 11:39:48;;;;;;;;;;;21.30;71.00;;;;;;5108265;28;19916;-65
2023/08/26 11:42:13;;;;;;;;;;;21.20;71.00;;;;;;5108022;28;19916;-65
2023/08/26 11:44:39;;;;;;;;;;;21.30;71.00;;;;;;5108073;28;19950;-65
2023/08/26 11:47:05;;;;;;;;;;;21.30;71.00;;;;;;5108233;28;19995;-65
2023/08/26 11:49:31;;;;;;;;;;;21.30;71.10;;;;;;5107766;28;19920;-65
2023/08/26 11:51:59;;;;;;;;;;;21.30;71.00;;;;;;5109184;28;19969;-65
2023/08/26 11:54:24;;;;;;;;;;;21.20;71.00;;;;;;5108235;28;19925;-65
2023/08/26 11:56:50;;;;;;;;;;;21.30;70.90;;;;;;5109075;28;19923;-65
2023/08/26 11:59:19;;;;;;;;;;;21.30;70.90;;;;;;5108133;28;19920;-65
2023/08/26 12:01:45;;;;;;;;;;;21.30;70.90;;;;;;5093788;28;20244;-65
2023/08/26 12:04:11;;;;;;;;;;;21.30;70.90;;;;;;5095617;28;19923;-65
2023/08/26 12:06:37;;;;;;;;;;;21.30;70.90;;;;;;5094053;28;19916;-65
2023/08/26 12:09:04;;;;;;;;;;;21.30;70.90;;;;;;5093266;28;19946;-65
2023/08/26 12:11:34;;;;;;;;;;;21.30;70.90;;;;;;5095082;28;19920;-65
2023/08/26 12:14:00;;;;;;;;;;;21.30;70.90;;;;;;5094339;28;19922;-65
2023/08/26 12:16:25;;;;;;;;;;;21.30;70.80;;;;;;5095320;28;19915;-65
2023/08/26 12:18:54;;;;;;;;;;;21.30;70.80;;;;;;5095288;28;19916;-66
2023/08/26 12:21:19;;;;;;;;;;;21.30;70.80;;;;;;5093777;28;19927;-65
2023/08/26 12:23:48;;;;;;;;;;;21.30;70.90;;;;;;5093688;28;19916;-65
2023/08/26 12:26:13;;;;;;;;;;;21.30;70.90;;;;;;5093940;28;20313;-65
2023/08/26 12:28:39;;;;;;;;;;;21.30;70.80;;;;;;5094955;28;19920;-65
2023/08/26 12:31:04;;;;;;;;;;;21.30;70.80;;;;;;5093726;28;20347;-65
2023/08/26 12:33:30;;;;;;;;;;;21.30;70.90;;;;;;5093769;28;20284;-71
2023/08/26 12:35:56;;;;;;;;;;;21.30;70.80;;;;;;5093490;28;19916;-65
2023/08/26 12:38:22;;;;;;;;;;;21.30;70.70;;;;;;5094710;28;19952;-72
2023/08/26 12:40:48;;;;;;;;;;;21.30;70.80;;;;;;5094640;28;20274;-65
2023/08/26 12:43:14;;;;;;;;;;;21.30;70.80;;;;;;5093865;28;19923;-65
2023/08/26 12:45:40;;;;;;;;;;;21.30;70.70;;;;;;5094785;28;19920;-65
2023/08/26 12:48:05;;;;;;;;;;;21.30;70.60;;;;;;5096494;28;19920;-71
2023/08/26 12:50:31;;;;;;;;;;;21.30;70.60;;;;;;5096952;28;20014;-65
2023/08/26 12:52:57;;;;;;;;;;;21.30;70.70;;;;;;5114786;28;20371;-65
2023/08/26 12:55:22;;;;;;;;;;;21.20;70.60;;;;;;5096890;28;20362;-66
2023/08/26 12:57:48;;;;;;;;;;;21.30;70.60;;;;;;5114590;28;19922;-65
2023/08/26 13:00:14;;;;;;;;;;;21.30;70.60;;;;;;5096651;28;19916;-65
2023/08/26 13:02:40;;;;;;;;;;;21.30;70.60;;;;;;5096379;28;20305;-65
2023/08/26 13:05:06;;;;;;;;;;;21.30;70.60;;;;;;5096541;28;19919;-65
2023/08/26 13:07:32;;;;;;;;;;;21.30;70.40;;;;;;5096589;28;19915;-65
2023/08/26 13:09:58;;;;;;;;;;;21.30;70.50;;;;;;5096265;28;20282;-65
2023/08/26 13:12:23;;;;;;;;;;;21.30;70.50;;;;;;5113380;28;20339;-65
2023/08/26 13:14:49;;;;;;;;;;;21.30;70.40;;;;;;5114760;28;19916;-65
2023/08/26 13:17:14;;;;;;;;;;;21.30;70.40;;;;;;5096253;28;20018;-65
2023/08/26 13:19:39;;;;;;;;;;;21.30;70.30;;;;;;5130414;27;19916;-65
2023/08/26 13:22:05;;;;;;;;;;;21.30;70.30;;;;;;5096297;28;19934;-65
2023/08/26 13:24:31;;;;;;;;;;;21.30;70.30;;;;;;5095276;28;20002;-65
2023/08/26 13:26:56;;;;;;;;;;;21.30;70.30;;;;;;5095892;28;20008;-65
2023/08/26 13:29:22;;;;;;;;;;;21.30;71.10;;;;;;5095773;28;19928;-72
2023/08/26 13:31:47;;;;;;;;;;;21.30;70.30;;;;;;5095766;28;20021;-65
2023/08/26 13:34:13;;;;;;;;;;;21.30;70.20;;;;;;5095949;28;19922;-65
2023/08/26 13:36:40;;;;;;;;;;;21.30;70.30;;;;;;5113975;28;19919;-65
2023/08/26 13:39:06;;;;;;;;;;;21.40;70.30;;;;;;5113883;28;19922;-65
2023/08/26 13:41:31;;;;;;;;;;;21.30;70.30;;;;;;5095903;28;19915;-65
2023/08/26 13:43:57;;;;;;;;;;;21.30;70.20;;;;;;5095734;28;19915;-65
2023/08/26 13:46:22;;;;;;;;;;;21.30;70.20;;;;;;5095755;28;20342;-65
2023/08/26 13:48:48;;;;;;;;;;;21.30;70.20;;;;;;5095158;28;19920;-66
2023/08/26 13:51:13;;;;;;;;;;;21.30;70.30;;;;;;5095356;28;19920;-65
2023/08/26 13:53:39;;;;;;;;;;;21.30;70.20;;;;;;5113684;28;19966;-65
2023/08/26 13:56:04;;;;;;;;;;;21.30;70.10;;;;;;5113535;28;19960;-65
2023/08/26 13:58:30;;;;;;;;;;;21.30;70.20;;;;;;5095178;28;19922;-66
2023/08/26 14:00:56;;;;;;;;;;;21.40;70.20;;;;;;5095505;28;19923;-65
2023/08/26 14:03:22;;;;;;;;;;;21.40;70.10;;;;;;5095291;28;19961;-65
2023/08/26 14:05:49;;;;;;;;;;;21.30;70.00;;;;;;5095173;28;19916;-66
2023/08/26 14:08:15;;;;;;;;;;;21.40;70.20;;;;;;5129448;27;19920;-65
2023/08/26 14:10:41;;;;;;;;;;;21.40;70.10;;;;;;5094988;28;19934;-65
2023/08/26 14:13:06;;;;;;;;;;;21.30;70.00;;;;;;5095437;28;19937;-65
2023/08/26 14:15:32;;;;;;;;;;;21.40;70.10;;;;;;5129126;27;19916;-65